CCA842 LOWW-ZBAA
Flight info
| Callsign | CCA842 |
|---|---|
| Flight time | N/A |
| Altitude | 37000 |
| Route | ADAM1D ADAMA Z648 VEDER DCT ALAMU DCT EPARI DCT RONBU P975 ARTAT/N0494F270 P975 SIV/N0485F370 UA4 ERZ UB374 INDUR N161 OKTAT/N0481F390 N161 GASBI/K0891F390 N161 SARIN/K0885S1190 A368 FKG B215 DUBUV/K0900S1250 B215 NUKTI W66 DKO W69 GUVBA GUVBA4E |
| Aircraft | A359/H-SDE2E3GHIJ3J4J5LM1ORWXY/LB1D1 |
Departure
| Time | 2026-04-26 14:48 |
|---|---|
| Airport | Vienna International Airport (LOWW) |
Arrival
| Time | N/A |
|---|---|
| Airport | Beijing Capital International Airport (ZBAA) |
| Time | Latitude | Longitude | Altitude | Speed | Heading |
|---|---|---|---|---|---|
| 2026-04-26 14:07 | 48.11892 | 16.56831 | 616 ft | 0 kts | 206° |
| 2026-04-26 14:32 | 48.11895 | 16.56834 | 616 ft | 2 kts | 205° |
| 2026-04-26 14:32 | 48.11911 | 16.56841 | 630 ft | 2 kts | 193° |
| 2026-04-26 14:32 | 48.11927 | 16.56844 | 620 ft | 2 kts | 175° |
| 2026-04-26 14:32 | 48.11943 | 16.56839 | 630 ft | 2 kts | 150° |
| 2026-04-26 14:33 | 48.11956 | 16.56824 | 630 ft | 2 kts | 130° |
| 2026-04-26 14:33 | 48.11965 | 16.56805 | 630 ft | 2 kts | 118° |
| 2026-04-26 14:33 | 48.11967 | 16.56797 | 630 ft | 0 kts | 117° |
| 2026-04-26 14:38 | 48.11966 | 16.56801 | 630 ft | 2 kts | 117° |
| 2026-04-26 14:38 | 48.11948 | 16.56856 | 626 ft | 10 kts | 116° |
| 2026-04-26 14:38 | 48.11906 | 16.56987 | 628 ft | 18 kts | 116° |
| 2026-04-26 14:38 | 48.11860 | 16.57163 | 628 ft | 19 kts | 101° |
| 2026-04-26 14:39 | 48.11819 | 16.57324 | 623 ft | 15 kts | 111° |
| 2026-04-26 14:39 | 48.11823 | 16.57478 | 630 ft | 15 kts | 73° |
| 2026-04-26 14:39 | 48.11802 | 16.57606 | 626 ft | 13 kts | 143° |
| 2026-04-26 14:39 | 48.11714 | 16.57650 | 628 ft | 14 kts | 163° |
| 2026-04-26 14:40 | 48.11616 | 16.57693 | 624 ft | 15 kts | 163° |
| 2026-04-26 14:40 | 48.11516 | 16.57681 | 626 ft | 15 kts | 214° |
| 2026-04-26 14:40 | 48.11421 | 16.57636 | 628 ft | 15 kts | 169° |
| 2026-04-26 14:40 | 48.11319 | 16.57678 | 626 ft | 16 kts | 164° |
| 2026-04-26 14:41 | 48.11208 | 16.57727 | 624 ft | 17 kts | 163° |
| 2026-04-26 14:41 | 48.11093 | 16.57775 | 630 ft | 18 kts | 164° |
| 2026-04-26 14:41 | 48.10970 | 16.57827 | 625 ft | 19 kts | 164° |
| 2026-04-26 14:41 | 48.10839 | 16.57882 | 627 ft | 20 kts | 164° |
| 2026-04-26 14:42 | 48.10702 | 16.57939 | 623 ft | 21 kts | 164° |
| 2026-04-26 14:42 | 48.10560 | 16.57999 | 628 ft | 22 kts | 164° |
| 2026-04-26 14:42 | 48.10411 | 16.58062 | 627 ft | 23 kts | 164° |
| 2026-04-26 14:42 | 48.10256 | 16.58128 | 627 ft | 24 kts | 164° |
| 2026-04-26 14:43 | 48.10096 | 16.58196 | 623 ft | 24 kts | 163° |
| 2026-04-26 14:43 | 48.09931 | 16.58265 | 623 ft | 25 kts | 165° |
| 2026-04-26 14:43 | 48.09765 | 16.58334 | 628 ft | 25 kts | 164° |
| 2026-04-26 14:43 | 48.09590 | 16.58408 | 627 ft | 26 kts | 164° |
| 2026-04-26 14:44 | 48.09415 | 16.58483 | 626 ft | 26 kts | 164° |
| 2026-04-26 14:44 | 48.09236 | 16.58558 | 624 ft | 27 kts | 164° |
| 2026-04-26 14:44 | 48.09068 | 16.58629 | 625 ft | 21 kts | 164° |
| 2026-04-26 14:44 | 48.08928 | 16.58689 | 630 ft | 21 kts | 164° |
| 2026-04-26 14:45 | 48.08812 | 16.58795 | 625 ft | 17 kts | 124° |
| 2026-04-26 14:45 | 48.08791 | 16.58882 | 628 ft | 13 kts | 97° |
| 2026-04-26 14:45 | 48.08793 | 16.58918 | 626 ft | 0 kts | 81° |
| 2026-04-26 14:46 | 48.08793 | 16.58925 | 626 ft | 4 kts | 81° |
| 2026-04-26 14:46 | 48.08813 | 16.59005 | 624 ft | 13 kts | 58° |
| 2026-04-26 14:47 | 48.08896 | 16.59098 | 629 ft | 16 kts | 16° |
| 2026-04-26 14:47 | 48.08996 | 16.59077 | 624 ft | 14 kts | 343° |
| 2026-04-26 14:47 | 48.09163 | 16.59008 | 630 ft | 47 kts | 344° |
| 2026-04-26 14:47 | 48.09665 | 16.58796 | 625 ft | 101 kts | 343° |
| 2026-04-26 14:48 | 48.10493 | 16.58446 | 627 ft | 146 kts | 344° |
| 2026-04-26 14:48 | 48.11512 | 16.58001 | 1039 ft | 151 kts | 343° |
| 2026-04-26 14:48 | 48.12501 | 16.57549 | 1736 ft | 147 kts | 346° |
| 2026-04-26 14:48 | 48.13475 | 16.56838 | 2018 ft | 168 kts | 332° |
| 2026-04-26 14:49 | 48.14654 | 16.56640 | 2197 ft | 184 kts | 16° |
| 2026-04-26 14:49 | 48.15621 | 16.57967 | 2514 ft | 203 kts | 62° |
| 2026-04-26 14:49 | 48.15716 | 16.60142 | 2869 ft | 222 kts | 99° |
| 2026-04-26 14:49 | 48.15411 | 16.62452 | 3344 ft | 225 kts | 89° |
| 2026-04-26 14:50 | 48.15447 | 16.64772 | 3886 ft | 224 kts | 78° |
| 2026-04-26 14:50 | 48.15731 | 16.67077 | 4431 ft | 225 kts | 71° |
| 2026-04-26 14:50 | 48.16125 | 16.69352 | 4982 ft | 229 kts | 73° |
| 2026-04-26 14:50 | 48.16131 | 16.71796 | 5405 ft | 245 kts | 99° |
| 2026-04-26 14:51 | 48.15552 | 16.74301 | 5644 ft | 265 kts | 109° |
| 2026-04-26 14:51 | 48.14817 | 16.76944 | 5892 ft | 281 kts | 109° |
| 2026-04-26 14:51 | 48.14069 | 16.79705 | 6328 ft | 291 kts | 109° |
| 2026-04-26 14:51 | 48.13314 | 16.82555 | 6773 ft | 299 kts | 108° |
| 2026-04-26 14:52 | 48.12567 | 16.85427 | 7272 ft | 302 kts | 108° |
| 2026-04-26 14:52 | 48.11667 | 16.88299 | 7836 ft | 307 kts | 122° |
| 2026-04-26 14:52 | 48.10244 | 16.90698 | 8420 ft | 309 kts | 136° |
| 2026-04-26 14:52 | 48.08673 | 16.92920 | 8967 ft | 312 kts | 136° |
| 2026-04-26 14:53 | 48.07086 | 16.95158 | 9567 ft | 314 kts | 136° |
| 2026-04-26 14:53 | 48.05498 | 16.97411 | 10122 ft | 317 kts | 136° |
| 2026-04-26 14:53 | 48.03862 | 16.99742 | 10398 ft | 330 kts | 136° |
| 2026-04-26 14:53 | 48.02214 | 17.02232 | 10607 ft | 344 kts | 129° |
| 2026-04-26 14:54 | 48.01057 | 17.05383 | 10768 ft | 353 kts | 103° |
| 2026-04-26 14:54 | 48.00648 | 17.09031 | 11012 ft | 361 kts | 92° |
| 2026-04-26 14:54 | 48.00390 | 17.12810 | 11233 ft | 372 kts | 92° |
| 2026-04-26 14:54 | 48.00111 | 17.16733 | 11452 ft | 383 kts | 93° |
| 2026-04-26 14:55 | 47.99817 | 17.20688 | 11674 ft | 393 kts | 93° |
| 2026-04-26 14:55 | 47.99505 | 17.24785 | 12032 ft | 398 kts | 93° |
| 2026-04-26 14:55 | 47.99187 | 17.28907 | 12465 ft | 402 kts | 93° |
| 2026-04-26 14:55 | 47.98837 | 17.33058 | 12889 ft | 405 kts | 96° |
| 2026-04-26 14:56 | 47.98220 | 17.37197 | 13283 ft | 410 kts | 102° |
| 2026-04-26 14:56 | 47.97401 | 17.41309 | 13689 ft | 415 kts | 105° |
| 2026-04-26 14:56 | 47.96481 | 17.45419 | 14084 ft | 417 kts | 107° |
| 2026-04-26 14:56 | 47.95539 | 17.49466 | 14397 ft | 421 kts | 107° |
| 2026-04-26 14:57 | 47.94563 | 17.53670 | 14770 ft | 423 kts | 107° |
| 2026-04-26 14:57 | 47.93614 | 17.57815 | 15156 ft | 425 kts | 106° |
| 2026-04-26 14:57 | 47.92667 | 17.62019 | 15531 ft | 427 kts | 106° |
| 2026-04-26 14:57 | 47.91748 | 17.66145 | 15924 ft | 428 kts | 105° |
| 2026-04-26 14:58 | 47.90791 | 17.70459 | 16306 ft | 430 kts | 105° |
| 2026-04-26 14:58 | 47.89864 | 17.74647 | 16666 ft | 433 kts | 105° |
| 2026-04-26 14:58 | 47.88922 | 17.78895 | 17019 ft | 435 kts | 105° |
| 2026-04-26 14:58 | 47.87964 | 17.83206 | 17383 ft | 437 kts | 105° |
| 2026-04-26 14:59 | 47.87005 | 17.87507 | 17757 ft | 439 kts | 105° |
| 2026-04-26 14:59 | 47.86036 | 17.91840 | 18110 ft | 441 kts | 105° |
| 2026-04-26 14:59 | 47.85066 | 17.96108 | 18454 ft | 444 kts | 107° |
| 2026-04-26 14:59 | 47.84278 | 17.99023 | 18658 ft | 447 kts | 110° |
| 2026-04-26 15:00 | 47.82623 | 18.04645 | 19016 ft | 451 kts | 112° |
| 2026-04-26 15:00 | 47.81306 | 18.08910 | 19288 ft | 454 kts | 112° |
| 2026-04-26 15:00 | 47.79961 | 18.13183 | 19586 ft | 456 kts | 112° |
| 2026-04-26 15:00 | 47.78608 | 18.17457 | 19872 ft | 458 kts | 112° |
| 2026-04-26 15:01 | 47.77247 | 18.21757 | 20161 ft | 460 kts | 113° |
| 2026-04-26 15:01 | 47.75879 | 18.26081 | 20469 ft | 462 kts | 113° |
| 2026-04-26 15:01 | 47.74571 | 18.30451 | 20741 ft | 463 kts | 108° |
| 2026-04-26 15:01 | 47.73697 | 18.35028 | 21002 ft | 461 kts | 98° |
| 2026-04-26 15:02 | 47.73158 | 18.39703 | 21293 ft | 461 kts | 95° |
| 2026-04-26 15:02 | 47.72774 | 18.43978 | 21539 ft | 463 kts | 93° |
| 2026-04-26 15:02 | 47.72419 | 18.48641 | 21794 ft | 465 kts | 92° |
| 2026-04-26 15:02 | 47.72078 | 18.53434 | 22074 ft | 467 kts | 92° |
| 2026-04-26 15:03 | 47.71737 | 18.58234 | 22344 ft | 469 kts | 93° |
| 2026-04-26 15:03 | 47.71384 | 18.63077 | 22628 ft | 471 kts | 93° |
| 2026-04-26 15:03 | 47.71018 | 18.67929 | 22910 ft | 473 kts | 93° |
| 2026-04-26 15:03 | 47.70641 | 18.72803 | 23166 ft | 475 kts | 93° |
| 2026-04-26 15:04 | 47.70258 | 18.77690 | 23431 ft | 478 kts | 93° |
| 2026-04-26 15:04 | 47.69867 | 18.82615 | 23698 ft | 481 kts | 94° |
| 2026-04-26 15:04 | 47.69470 | 18.87585 | 23845 ft | 485 kts | 94° |
| 2026-04-26 15:04 | 47.69015 | 18.92549 | 24071 ft | 488 kts | 98° |
| 2026-04-26 15:05 | 47.68154 | 18.97441 | 24305 ft | 492 kts | 107° |
| 2026-04-26 15:05 | 47.67757 | 18.98991 | 24376 ft | 494 kts | 111° |
| 2026-04-26 15:05 | 47.65065 | 19.06511 | 24752 ft | 498 kts | 120° |
| 2026-04-26 15:05 | 47.63246 | 19.10908 | 25000 ft | 500 kts | 121° |
| 2026-04-26 15:06 | 47.61375 | 19.15273 | 25225 ft | 501 kts | 122° |
| 2026-04-26 15:06 | 47.59491 | 19.19620 | 25471 ft | 503 kts | 122° |
| 2026-04-26 15:06 | 47.57587 | 19.24016 | 25652 ft | 506 kts | 122° |
| 2026-04-26 15:06 | 47.55686 | 19.28425 | 25893 ft | 508 kts | 121° |
| 2026-04-26 15:07 | 47.51893 | 19.37280 | 26391 ft | 510 kts | 121° |
| 2026-04-26 15:07 | 47.50013 | 19.41676 | 26632 ft | 512 kts | 121° |
| 2026-04-26 15:07 | 47.48102 | 19.46144 | 26873 ft | 514 kts | 121° |
| 2026-04-26 15:08 | 47.46191 | 19.50604 | 27116 ft | 515 kts | 122° |
| 2026-04-26 15:08 | 47.44891 | 19.53633 | 27276 ft | 517 kts | 121° |
| 2026-04-26 15:08 | 47.42957 | 19.58134 | 27453 ft | 520 kts | 122° |
| 2026-04-26 15:08 | 47.41026 | 19.62618 | 27686 ft | 522 kts | 122° |
| 2026-04-26 15:09 | 47.39078 | 19.67133 | 27922 ft | 523 kts | 122° |
| 2026-04-26 15:09 | 47.37112 | 19.71683 | 28175 ft | 525 kts | 122° |
| 2026-04-26 15:09 | 47.35140 | 19.76236 | 28424 ft | 526 kts | 122° |
| 2026-04-26 15:09 | 47.33177 | 19.80764 | 28832 ft | 523 kts | 122° |
| 2026-04-26 15:10 | 47.31223 | 19.85260 | 29066 ft | 525 kts | 122° |
| 2026-04-26 15:10 | 47.29913 | 19.88272 | 29156 ft | 527 kts | 122° |
| 2026-04-26 15:10 | 47.27249 | 19.94387 | 29391 ft | 530 kts | 122° |
| 2026-04-26 15:10 | 47.25253 | 19.98961 | 29626 ft | 531 kts | 122° |
| 2026-04-26 15:11 | 47.23247 | 20.03548 | 29860 ft | 533 kts | 122° |
| 2026-04-26 15:11 | 47.21237 | 20.08138 | 30083 ft | 534 kts | 122° |
| 2026-04-26 15:11 | 47.19218 | 20.12740 | 30330 ft | 534 kts | 122° |
| 2026-04-26 15:11 | 47.17205 | 20.17321 | 30647 ft | 533 kts | 122° |
| 2026-04-26 15:12 | 47.15198 | 20.21880 | 30932 ft | 533 kts | 122° |
| 2026-04-26 15:12 | 47.13183 | 20.26450 | 31127 ft | 534 kts | 122° |
| 2026-04-26 15:12 | 47.11170 | 20.31009 | 31426 ft | 532 kts | 123° |
| 2026-04-26 15:12 | 47.09170 | 20.35529 | 31738 ft | 530 kts | 123° |
| 2026-04-26 15:13 | 47.07156 | 20.40076 | 32022 ft | 529 kts | 123° |
| 2026-04-26 15:13 | 47.05152 | 20.44591 | 32341 ft | 528 kts | 123° |
| 2026-04-26 15:13 | 47.03155 | 20.49083 | 32635 ft | 526 kts | 123° |
| 2026-04-26 15:13 | 47.01151 | 20.53583 | 32924 ft | 525 kts | 123° |
| 2026-04-26 15:14 | 46.99153 | 20.58065 | 33211 ft | 524 kts | 123° |
| 2026-04-26 15:14 | 46.97169 | 20.62504 | 33496 ft | 523 kts | 123° |
| 2026-04-26 15:14 | 46.95178 | 20.66956 | 33776 ft | 522 kts | 123° |
| 2026-04-26 15:14 | 46.93181 | 20.71411 | 34063 ft | 520 kts | 123° |
| 2026-04-26 15:15 | 46.91198 | 20.75830 | 34301 ft | 520 kts | 123° |
| 2026-04-26 15:15 | 46.89204 | 20.80266 | 34505 ft | 519 kts | 124° |
| 2026-04-26 15:15 | 46.87222 | 20.84667 | 34745 ft | 519 kts | 124° |
| 2026-04-26 15:15 | 46.85224 | 20.89095 | 34804 ft | 522 kts | 124° |
| 2026-04-26 15:16 | 46.83250 | 20.93466 | 34926 ft | 523 kts | 124° |
| 2026-04-26 15:16 | 46.81244 | 20.97899 | 35080 ft | 523 kts | 124° |
| 2026-04-26 15:16 | 46.77228 | 21.06753 | 35104 ft | 521 kts | 124° |
| 2026-04-26 15:17 | 46.73899 | 21.14072 | 35103 ft | 521 kts | 124° |
| 2026-04-26 15:17 | 46.69220 | 21.24328 | 35102 ft | 520 kts | 124° |
| 2026-04-26 15:18 | 46.65461 | 21.32538 | 35103 ft | 519 kts | 124° |
| 2026-04-26 15:18 | 46.61453 | 21.41266 | 35105 ft | 519 kts | 124° |
| 2026-04-26 15:19 | 46.57443 | 21.49972 | 35109 ft | 517 kts | 124° |
| 2026-04-26 15:19 | 46.53416 | 21.58686 | 35103 ft | 518 kts | 124° |
| 2026-04-26 15:20 | 46.49387 | 21.67377 | 35104 ft | 519 kts | 124° |
| 2026-04-26 15:20 | 46.45370 | 21.76016 | 35097 ft | 519 kts | 124° |
| 2026-04-26 15:21 | 46.41327 | 21.84683 | 35103 ft | 519 kts | 124° |
| 2026-04-26 15:21 | 46.37263 | 21.93367 | 35097 ft | 521 kts | 124° |
| 2026-04-26 15:22 | 46.33186 | 22.02054 | 35166 ft | 521 kts | 124° |
| 2026-04-26 15:22 | 46.31143 | 22.06398 | 35374 ft | 521 kts | 125° |
| 2026-04-26 15:22 | 46.29105 | 22.10723 | 35606 ft | 520 kts | 125° |
| 2026-04-26 15:23 | 46.27080 | 22.15015 | 35803 ft | 519 kts | 125° |
| 2026-04-26 15:23 | 46.25031 | 22.19351 | 35985 ft | 519 kts | 125° |
| 2026-04-26 15:23 | 46.22995 | 22.23652 | 36152 ft | 519 kts | 125° |
| 2026-04-26 15:23 | 46.20956 | 22.27952 | 36427 ft | 516 kts | 125° |
| 2026-04-26 15:24 | 46.18936 | 22.32209 | 36640 ft | 515 kts | 125° |
| 2026-04-26 15:24 | 46.16903 | 22.36484 | 36811 ft | 515 kts | 125° |
| 2026-04-26 15:24 | 46.14880 | 22.40734 | 36914 ft | 515 kts | 125° |
| 2026-04-26 15:24 | 46.12851 | 22.44988 | 37050 ft | 515 kts | 125° |
| 2026-04-26 15:25 | 46.09458 | 22.52087 | 37070 ft | 519 kts | 125° |
| 2026-04-26 15:25 | 46.04680 | 22.62051 | 37064 ft | 519 kts | 125° |
| 2026-04-26 15:26 | 46.00563 | 22.70613 | 37064 ft | 519 kts | 125° |
| 2026-04-26 15:26 | 45.96448 | 22.79141 | 37060 ft | 520 kts | 126° |
| 2026-04-26 15:27 | 45.92296 | 22.87721 | 37050 ft | 522 kts | 126° |
| 2026-04-26 15:27 | 45.88167 | 22.96228 | 37050 ft | 522 kts | 126° |
| 2026-04-26 15:28 | 45.84010 | 23.04765 | 37039 ft | 521 kts | 126° |
| 2026-04-26 15:28 | 45.79853 | 23.13280 | 37043 ft | 518 kts | 126° |
| 2026-04-26 15:29 | 45.75716 | 23.21728 | 37040 ft | 518 kts | 126° |
| 2026-04-26 15:30 | 45.67449 | 23.38534 | 37038 ft | 517 kts | 126° |
| 2026-04-26 15:30 | 45.63299 | 23.46932 | 37034 ft | 517 kts | 126° |
| 2026-04-26 15:31 | 45.57051 | 23.59528 | 37036 ft | 516 kts | 126° |
| 2026-04-26 15:32 | 45.51724 | 23.70224 | 37023 ft | 516 kts | 126° |
| 2026-04-26 15:32 | 45.46872 | 23.79931 | 37019 ft | 517 kts | 126° |
| 2026-04-26 15:33 | 45.42665 | 23.88316 | 37031 ft | 521 kts | 126° |
| 2026-04-26 15:33 | 45.38446 | 23.96705 | 37011 ft | 522 kts | 125° |
| 2026-04-26 15:34 | 45.34197 | 24.05133 | 37002 ft | 525 kts | 125° |
| 2026-04-26 15:34 | 45.29957 | 24.13517 | 36999 ft | 525 kts | 125° |
| 2026-04-26 15:35 | 45.25681 | 24.21946 | 36990 ft | 525 kts | 125° |
| 2026-04-26 15:35 | 45.21393 | 24.30364 | 36979 ft | 527 kts | 125° |
| 2026-04-26 15:36 | 45.17116 | 24.38749 | 36978 ft | 528 kts | 125° |
| 2026-04-26 15:36 | 45.12778 | 24.47227 | 36970 ft | 527 kts | 125° |
| 2026-04-26 15:37 | 45.08513 | 24.55536 | 36941 ft | 526 kts | 126° |
| 2026-04-26 15:37 | 45.04220 | 24.63874 | 36947 ft | 520 kts | 126° |
| 2026-04-26 15:38 | 44.99960 | 24.72123 | 36951 ft | 519 kts | 126° |
| 2026-04-26 15:38 | 44.95694 | 24.80358 | 36942 ft | 520 kts | 126° |
| 2026-04-26 15:39 | 44.91420 | 24.88587 | 36929 ft | 519 kts | 126° |
| 2026-04-26 15:39 | 44.87864 | 24.95417 | 36930 ft | 519 kts | 126° |
| 2026-04-26 15:40 | 44.82855 | 25.05009 | 36924 ft | 519 kts | 126° |
| 2026-04-26 15:40 | 44.78568 | 25.13193 | 36918 ft | 520 kts | 127° |
| 2026-04-26 15:41 | 44.74278 | 25.21358 | 36908 ft | 522 kts | 127° |
| 2026-04-26 15:41 | 44.69938 | 25.29596 | 36902 ft | 521 kts | 127° |
| 2026-04-26 15:42 | 44.65655 | 25.37704 | 36909 ft | 518 kts | 127° |
| 2026-04-26 15:42 | 44.61344 | 25.45840 | 36894 ft | 519 kts | 127° |
| 2026-04-26 15:43 | 44.57028 | 25.53963 | 36897 ft | 519 kts | 127° |
| 2026-04-26 15:44 | 44.50535 | 25.66142 | 36880 ft | 519 kts | 127° |
| 2026-04-26 15:44 | 44.44042 | 25.78267 | 36871 ft | 518 kts | 127° |
| 2026-04-26 15:45 | 44.37575 | 25.90296 | 36867 ft | 518 kts | 127° |
| 2026-04-26 15:46 | 44.31053 | 26.02373 | 36866 ft | 517 kts | 127° |
| 2026-04-26 15:46 | 44.28154 | 26.07727 | 36874 ft | 516 kts | 127° |
| 2026-04-26 15:47 | 44.20206 | 26.22353 | 36869 ft | 516 kts | 127° |
| 2026-04-26 15:48 | 44.15877 | 26.30289 | 36869 ft | 516 kts | 127° |
| 2026-04-26 15:48 | 44.11515 | 26.38264 | 36868 ft | 516 kts | 127° |
| 2026-04-26 15:49 | 44.07158 | 26.46206 | 36871 ft | 516 kts | 127° |
| 2026-04-26 15:49 | 44.02843 | 26.54139 | 36874 ft | 516 kts | 126° |
| 2026-04-26 15:50 | 43.98691 | 26.62269 | 36872 ft | 516 kts | 124° |
| 2026-04-26 15:50 | 43.94562 | 26.70425 | 36867 ft | 516 kts | 124° |
| 2026-04-26 15:51 | 43.90410 | 26.78525 | 36867 ft | 514 kts | 125° |
| 2026-04-26 15:51 | 43.86250 | 26.86568 | 36872 ft | 513 kts | 125° |
| 2026-04-26 15:52 | 43.82756 | 26.93297 | 36874 ft | 513 kts | 125° |
| 2026-04-26 15:52 | 43.78603 | 27.01278 | 36866 ft | 513 kts | 125° |
| 2026-04-26 15:53 | 43.74438 | 27.09263 | 36867 ft | 510 kts | 125° |
| 2026-04-26 15:53 | 43.70275 | 27.17222 | 36870 ft | 510 kts | 125° |
| 2026-04-26 15:54 | 43.66109 | 27.25169 | 36870 ft | 510 kts | 125° |
| 2026-04-26 15:54 | 43.61943 | 27.33090 | 36870 ft | 509 kts | 125° |
| 2026-04-26 15:55 | 43.57798 | 27.40952 | 36866 ft | 509 kts | 125° |
| 2026-04-26 15:55 | 43.53620 | 27.48856 | 36862 ft | 508 kts | 125° |
| 2026-04-26 15:56 | 43.49450 | 27.56721 | 36872 ft | 508 kts | 125° |
| 2026-04-26 15:56 | 43.45284 | 27.64560 | 36874 ft | 508 kts | 125° |
| 2026-04-26 15:57 | 43.41107 | 27.72399 | 36877 ft | 508 kts | 126° |
| 2026-04-26 15:57 | 43.36924 | 27.80228 | 36881 ft | 508 kts | 126° |
| 2026-04-26 15:58 | 43.32734 | 27.88048 | 36883 ft | 508 kts | 126° |
| 2026-04-26 15:58 | 43.28562 | 27.95813 | 36882 ft | 508 kts | 126° |
| 2026-04-26 15:59 | 43.24361 | 28.03613 | 36883 ft | 508 kts | 126° |
| 2026-04-26 15:59 | 43.20157 | 28.11399 | 36890 ft | 508 kts | 126° |
| 2026-04-26 16:00 | 43.15940 | 28.19187 | 36898 ft | 508 kts | 126° |
| 2026-04-26 16:00 | 43.11722 | 28.26958 | 36906 ft | 508 kts | 126° |
| 2026-04-26 16:01 | 43.07498 | 28.34718 | 36905 ft | 508 kts | 127° |
| 2026-04-26 16:01 | 43.03291 | 28.42428 | 36908 ft | 508 kts | 127° |
| 2026-04-26 16:02 | 42.99054 | 28.50170 | 36909 ft | 508 kts | 127° |
| 2026-04-26 16:02 | 42.94799 | 28.57927 | 36912 ft | 508 kts | 127° |
| 2026-04-26 16:03 | 42.90553 | 28.65646 | 36911 ft | 508 kts | 127° |
| 2026-04-26 16:03 | 42.86323 | 28.73319 | 36911 ft | 508 kts | 127° |
| 2026-04-26 16:04 | 42.82064 | 28.81021 | 36912 ft | 508 kts | 127° |
| 2026-04-26 16:04 | 42.77798 | 28.88717 | 36911 ft | 510 kts | 127° |
| 2026-04-26 16:05 | 42.73513 | 28.96428 | 36918 ft | 511 kts | 128° |
| 2026-04-26 16:05 | 42.69213 | 29.04147 | 36919 ft | 512 kts | 128° |
| 2026-04-26 16:06 | 42.64912 | 29.11846 | 36917 ft | 512 kts | 128° |
| 2026-04-26 16:06 | 42.60613 | 29.19523 | 36917 ft | 512 kts | 128° |
| 2026-04-26 16:07 | 42.56299 | 29.27206 | 36922 ft | 512 kts | 128° |
| 2026-04-26 16:07 | 42.51969 | 29.34897 | 36925 ft | 512 kts | 128° |
| 2026-04-26 16:08 | 42.47641 | 29.42566 | 36921 ft | 513 kts | 128° |
| 2026-04-26 16:08 | 42.43295 | 29.50246 | 36928 ft | 513 kts | 128° |
| 2026-04-26 16:09 | 42.38952 | 29.57909 | 36928 ft | 513 kts | 128° |
| 2026-04-26 16:09 | 42.35472 | 29.66294 | 36933 ft | 513 kts | 111° |
| 2026-04-26 16:10 | 42.33042 | 29.75313 | 36935 ft | 513 kts | 108° |
| 2026-04-26 16:10 | 42.30759 | 29.84448 | 36939 ft | 513 kts | 108° |
| 2026-04-26 16:11 | 42.28464 | 29.93597 | 36936 ft | 514 kts | 108° |
| 2026-04-26 16:11 | 42.26139 | 30.02722 | 36935 ft | 514 kts | 108° |
| 2026-04-26 16:12 | 42.23793 | 30.11849 | 36938 ft | 514 kts | 109° |
| 2026-04-26 16:12 | 42.20264 | 30.25501 | 36939 ft | 513 kts | 109° |
| 2026-04-26 16:13 | 42.17924 | 30.34515 | 36944 ft | 513 kts | 109° |
| 2026-04-26 16:13 | 42.15555 | 30.43612 | 36944 ft | 513 kts | 109° |
| 2026-04-26 16:14 | 42.13181 | 30.52690 | 36946 ft | 513 kts | 109° |
| 2026-04-26 16:15 | 42.09613 | 30.66270 | 36953 ft | 512 kts | 109° |
| 2026-04-26 16:15 | 42.07221 | 30.75334 | 36953 ft | 513 kts | 109° |
| 2026-04-26 16:16 | 42.03630 | 30.88877 | 36950 ft | 512 kts | 109° |
| 2026-04-26 16:16 | 42.01231 | 30.97883 | 36955 ft | 512 kts | 109° |
| 2026-04-26 16:17 | 41.98840 | 31.06847 | 36955 ft | 512 kts | 109° |
| 2026-04-26 16:17 | 41.96435 | 31.15834 | 36958 ft | 511 kts | 109° |
| 2026-04-26 16:18 | 41.92813 | 31.29293 | 36960 ft | 510 kts | 109° |
| 2026-04-26 16:19 | 41.89178 | 31.42736 | 36960 ft | 510 kts | 110° |
| 2026-04-26 16:20 | 41.85547 | 31.56092 | 36966 ft | 509 kts | 110° |
| 2026-04-26 16:20 | 41.81893 | 31.69475 | 36968 ft | 509 kts | 110° |
| 2026-04-26 16:21 | 41.79447 | 31.78363 | 36969 ft | 509 kts | 110° |
| 2026-04-26 16:21 | 41.76984 | 31.87261 | 36971 ft | 508 kts | 110° |
| 2026-04-26 16:22 | 41.74516 | 31.96144 | 36976 ft | 508 kts | 110° |
| 2026-04-26 16:22 | 41.72044 | 32.05024 | 36982 ft | 509 kts | 110° |
| 2026-04-26 16:23 | 41.69584 | 32.13839 | 36982 ft | 509 kts | 110° |
| 2026-04-26 16:23 | 41.67112 | 32.22699 | 36982 ft | 509 kts | 110° |
| 2026-04-26 16:24 | 41.64635 | 32.31571 | 36984 ft | 508 kts | 110° |
| 2026-04-26 16:24 | 41.62147 | 32.40423 | 36991 ft | 507 kts | 110° |
| 2026-04-26 16:25 | 41.59645 | 32.49240 | 36988 ft | 507 kts | 110° |
| 2026-04-26 16:25 | 41.57157 | 32.57992 | 36993 ft | 507 kts | 110° |
| 2026-04-26 16:26 | 41.55064 | 32.65347 | 36996 ft | 506 kts | 110° |
| 2026-04-26 16:26 | 41.52147 | 32.75565 | 36995 ft | 506 kts | 111° |
| 2026-04-26 16:27 | 41.49634 | 32.84339 | 36997 ft | 506 kts | 111° |
| 2026-04-26 16:27 | 41.47116 | 32.93096 | 37001 ft | 505 kts | 111° |
| 2026-04-26 16:28 | 41.44304 | 33.01673 | 37000 ft | 505 kts | 118° |
| 2026-04-26 16:28 | 41.40977 | 33.09876 | 36998 ft | 505 kts | 119° |
| 2026-04-26 16:29 | 41.37564 | 33.18050 | 36997 ft | 504 kts | 119° |
| 2026-04-26 16:29 | 41.34152 | 33.26208 | 36998 ft | 505 kts | 118° |
| 2026-04-26 16:30 | 41.30825 | 33.34431 | 36995 ft | 504 kts | 118° |
| 2026-04-26 16:30 | 41.27535 | 33.42688 | 36989 ft | 505 kts | 117° |
| 2026-04-26 16:31 | 41.24286 | 33.50954 | 36987 ft | 504 kts | 117° |
| 2026-04-26 16:31 | 41.21054 | 33.59154 | 36989 ft | 503 kts | 118° |
| 2026-04-26 16:32 | 41.18337 | 33.66005 | 36980 ft | 503 kts | 118° |
| 2026-04-26 16:32 | 41.14511 | 33.75609 | 36967 ft | 502 kts | 118° |
| 2026-04-26 16:33 | 41.11240 | 33.83792 | 36968 ft | 502 kts | 118° |
| 2026-04-26 16:33 | 41.07965 | 33.91965 | 36964 ft | 502 kts | 118° |
| 2026-04-26 16:34 | 41.04685 | 34.00126 | 36962 ft | 501 kts | 118° |
| 2026-04-26 16:34 | 41.01959 | 34.06894 | 36955 ft | 500 kts | 118° |
| 2026-04-26 16:35 | 40.98674 | 34.15031 | 36948 ft | 500 kts | 118° |
| 2026-04-26 16:35 | 40.95392 | 34.23136 | 36934 ft | 499 kts | 118° |
| 2026-04-26 16:36 | 40.92125 | 34.31181 | 36931 ft | 498 kts | 118° |
| 2026-04-26 16:36 | 40.88837 | 34.39256 | 36942 ft | 498 kts | 118° |
| 2026-04-26 16:37 | 40.85547 | 34.47318 | 36912 ft | 498 kts | 119° |
| 2026-04-26 16:37 | 40.82241 | 34.55392 | 36908 ft | 499 kts | 118° |
| 2026-04-26 16:38 | 40.78935 | 34.63446 | 36910 ft | 500 kts | 119° |
| 2026-04-26 16:38 | 40.75613 | 34.71517 | 36909 ft | 500 kts | 119° |
| 2026-04-26 16:39 | 40.72262 | 34.79563 | 36909 ft | 501 kts | 120° |
| 2026-04-26 16:39 | 40.68818 | 34.87524 | 36934 ft | 499 kts | 120° |
| 2026-04-26 16:40 | 40.65380 | 34.95425 | 36905 ft | 500 kts | 120° |
| 2026-04-26 16:40 | 40.61934 | 35.03368 | 36911 ft | 498 kts | 120° |
| 2026-04-26 16:41 | 40.58505 | 35.11280 | 36908 ft | 498 kts | 120° |
| 2026-04-26 16:41 | 40.55063 | 35.19203 | 36915 ft | 498 kts | 120° |
| 2026-04-26 16:42 | 40.51631 | 35.27083 | 36934 ft | 497 kts | 120° |
| 2026-04-26 16:42 | 40.48178 | 35.34988 | 36909 ft | 497 kts | 120° |
| 2026-04-26 16:43 | 40.44729 | 35.42861 | 36914 ft | 497 kts | 120° |
| 2026-04-26 16:43 | 40.41294 | 35.50686 | 36909 ft | 497 kts | 121° |
| 2026-04-26 16:44 | 40.37833 | 35.58548 | 36913 ft | 497 kts | 121° |
| 2026-04-26 16:44 | 40.34372 | 35.66389 | 36927 ft | 497 kts | 121° |
| 2026-04-26 16:45 | 40.30905 | 35.74226 | 36931 ft | 497 kts | 121° |
| 2026-04-26 16:45 | 40.27420 | 35.82082 | 36940 ft | 498 kts | 121° |
| 2026-04-26 16:46 | 40.23958 | 35.89866 | 36940 ft | 498 kts | 121° |
| 2026-04-26 16:46 | 40.20461 | 35.97710 | 36963 ft | 498 kts | 121° |
| 2026-04-26 16:47 | 40.16960 | 36.05542 | 36951 ft | 498 kts | 121° |
| 2026-04-26 16:47 | 40.13464 | 36.13344 | 36950 ft | 498 kts | 122° |
| 2026-04-26 16:48 | 40.09958 | 36.21147 | 36972 ft | 498 kts | 122° |
| 2026-04-26 16:48 | 40.06459 | 36.28915 | 37005 ft | 498 kts | 122° |
| 2026-04-26 16:49 | 40.02936 | 36.36717 | 37022 ft | 498 kts | 122° |
| 2026-04-26 16:49 | 39.99408 | 36.44511 | 37018 ft | 499 kts | 122° |
| 2026-04-26 16:50 | 39.95879 | 36.52289 | 37053 ft | 499 kts | 122° |
| 2026-04-26 16:50 | 39.92352 | 36.60041 | 37069 ft | 499 kts | 122° |
| 2026-04-26 16:51 | 39.88809 | 36.67811 | 37065 ft | 499 kts | 123° |
| 2026-04-26 16:51 | 39.85247 | 36.75600 | 37039 ft | 500 kts | 123° |
| 2026-04-26 16:52 | 39.82310 | 36.82090 | 37029 ft | 500 kts | 120° |
| 2026-04-26 16:52 | 39.80499 | 36.87676 | 37042 ft | 502 kts | 108° |
| 2026-04-26 16:52 | 39.79753 | 36.92110 | 37045 ft | 505 kts | 98° |
| 2026-04-26 16:53 | 39.79844 | 37.01256 | 37042 ft | 508 kts | 85° |
| 2026-04-26 16:53 | 39.80594 | 37.10420 | 37053 ft | 509 kts | 84° |
| 2026-04-26 16:54 | 39.81390 | 37.19500 | 37060 ft | 509 kts | 84° |
| 2026-04-26 16:54 | 39.82151 | 37.28664 | 37055 ft | 509 kts | 85° |
| 2026-04-26 16:55 | 39.82882 | 37.37843 | 37061 ft | 509 kts | 85° |
| 2026-04-26 16:55 | 39.83599 | 37.47014 | 37041 ft | 510 kts | 85° |
| 2026-04-26 16:56 | 39.84648 | 37.60790 | 37029 ft | 510 kts | 85° |
| 2026-04-26 16:57 | 39.85335 | 37.69926 | 37046 ft | 510 kts | 85° |
| 2026-04-26 16:57 | 39.86361 | 37.83717 | 37028 ft | 511 kts | 85° |
| 2026-04-26 16:58 | 39.86924 | 37.91377 | 37027 ft | 512 kts | 85° |
| 2026-04-26 16:59 | 39.88047 | 38.06763 | 37008 ft | 512 kts | 85° |
| 2026-04-26 17:00 | 39.89378 | 38.25217 | 37009 ft | 512 kts | 86° |
| 2026-04-26 17:00 | 39.90357 | 38.39066 | 37025 ft | 512 kts | 86° |
| 2026-04-26 17:01 | 39.90997 | 38.48265 | 37017 ft | 512 kts | 86° |
| 2026-04-26 17:01 | 39.91633 | 38.57503 | 37031 ft | 512 kts | 86° |
| 2026-04-26 17:02 | 39.92261 | 38.66756 | 37040 ft | 512 kts | 86° |
| 2026-04-26 17:02 | 39.92882 | 38.75997 | 37044 ft | 512 kts | 86° |
| 2026-04-26 17:03 | 39.93496 | 38.85246 | 37057 ft | 512 kts | 86° |
| 2026-04-26 17:03 | 39.94011 | 38.94415 | 37063 ft | 511 kts | 90° |
| 2026-04-26 17:04 | 39.94104 | 39.03695 | 37076 ft | 510 kts | 91° |
| 2026-04-26 17:04 | 39.94140 | 39.12948 | 37074 ft | 510 kts | 91° |
| 2026-04-26 17:05 | 39.94249 | 39.22161 | 37083 ft | 512 kts | 90° |
| 2026-04-26 17:05 | 39.94389 | 39.31436 | 37087 ft | 512 kts | 90° |
| 2026-04-26 17:06 | 39.94528 | 39.40742 | 37096 ft | 512 kts | 90° |
| 2026-04-26 17:06 | 39.94657 | 39.50009 | 37094 ft | 512 kts | 90° |
| 2026-04-26 17:07 | 39.94776 | 39.59300 | 37096 ft | 512 kts | 90° |
| 2026-04-26 17:07 | 39.94894 | 39.68592 | 37093 ft | 512 kts | 90° |
| 2026-04-26 17:08 | 39.94999 | 39.77805 | 37090 ft | 512 kts | 90° |
| 2026-04-26 17:08 | 39.95102 | 39.87087 | 37088 ft | 512 kts | 90° |
| 2026-04-26 17:09 | 39.95181 | 39.94804 | 37089 ft | 511 kts | 90° |
| 2026-04-26 17:09 | 39.95277 | 40.05658 | 37093 ft | 513 kts | 90° |
| 2026-04-26 17:10 | 39.95347 | 40.14974 | 37094 ft | 515 kts | 90° |
| 2026-04-26 17:10 | 39.95411 | 40.24320 | 37100 ft | 515 kts | 91° |
| 2026-04-26 17:11 | 39.95470 | 40.33681 | 37098 ft | 515 kts | 91° |
| 2026-04-26 17:11 | 39.95521 | 40.42946 | 37104 ft | 515 kts | 91° |
| 2026-04-26 17:12 | 39.95584 | 40.56969 | 37110 ft | 516 kts | 91° |
| 2026-04-26 17:13 | 39.95637 | 40.70990 | 37109 ft | 515 kts | 91° |
| 2026-04-26 17:14 | 39.95667 | 40.85044 | 37107 ft | 515 kts | 91° |
| 2026-04-26 17:14 | 39.95681 | 40.98931 | 37104 ft | 515 kts | 91° |
| 2026-04-26 17:15 | 39.95680 | 41.12959 | 37102 ft | 514 kts | 91° |
| 2026-04-26 17:16 | 39.95832 | 41.22267 | 37107 ft | 515 kts | 86° |
| 2026-04-26 17:16 | 39.96459 | 41.31566 | 37116 ft | 515 kts | 86° |
| 2026-04-26 17:17 | 39.97157 | 41.40865 | 37112 ft | 515 kts | 86° |
| 2026-04-26 17:17 | 39.97852 | 41.50161 | 37110 ft | 516 kts | 86° |
| 2026-04-26 17:18 | 39.98419 | 41.57905 | 37111 ft | 515 kts | 86° |
| 2026-04-26 17:18 | 39.99088 | 41.67216 | 37115 ft | 515 kts | 86° |
| 2026-04-26 17:19 | 40.00089 | 41.81176 | 37111 ft | 515 kts | 86° |
| 2026-04-26 17:19 | 40.00766 | 41.90494 | 37116 ft | 515 kts | 86° |
| 2026-04-26 17:20 | 40.01321 | 41.98222 | 37112 ft | 514 kts | 86° |
| 2026-04-26 17:20 | 40.02092 | 42.09080 | 37119 ft | 514 kts | 86° |
| 2026-04-26 17:21 | 40.02738 | 42.18325 | 37113 ft | 514 kts | 86° |
| 2026-04-26 17:21 | 40.03382 | 42.27632 | 37122 ft | 514 kts | 86° |
| 2026-04-26 17:22 | 40.04016 | 42.36891 | 37121 ft | 513 kts | 86° |
| 2026-04-26 17:22 | 40.04644 | 42.46167 | 37124 ft | 512 kts | 86° |
| 2026-04-26 17:23 | 40.05229 | 42.55449 | 37128 ft | 512 kts | 87° |
| 2026-04-26 17:23 | 40.05784 | 42.64700 | 37131 ft | 512 kts | 87° |
| 2026-04-26 17:24 | 40.06338 | 42.73955 | 37121 ft | 513 kts | 87° |
| 2026-04-26 17:24 | 40.06893 | 42.83259 | 37132 ft | 513 kts | 87° |
| 2026-04-26 17:25 | 40.07443 | 42.92554 | 37131 ft | 513 kts | 87° |
| 2026-04-26 17:25 | 40.07990 | 43.01841 | 37128 ft | 513 kts | 87° |
| 2026-04-26 17:26 | 40.08528 | 43.11157 | 37133 ft | 513 kts | 87° |
| 2026-04-26 17:26 | 40.09052 | 43.20361 | 37132 ft | 513 kts | 88° |
| 2026-04-26 17:27 | 40.09578 | 43.29710 | 37128 ft | 514 kts | 88° |
| 2026-04-26 17:27 | 40.10096 | 43.39015 | 37113 ft | 514 kts | 88° |
| 2026-04-26 17:28 | 40.10606 | 43.48343 | 37112 ft | 514 kts | 88° |
| 2026-04-26 17:28 | 40.11101 | 43.57679 | 37092 ft | 515 kts | 88° |
| 2026-04-26 17:29 | 40.11547 | 43.65444 | 37076 ft | 514 kts | 85° |
| 2026-04-26 17:29 | 40.12937 | 43.76172 | 37055 ft | 515 kts | 81° |
| 2026-04-26 17:30 | 40.14253 | 43.85376 | 37045 ft | 515 kts | 81° |
| 2026-04-26 17:30 | 40.15573 | 43.94573 | 37048 ft | 514 kts | 81° |
| 2026-04-26 17:31 | 40.16878 | 44.03776 | 37025 ft | 515 kts | 81° |
| 2026-04-26 17:31 | 40.18167 | 44.12956 | 37001 ft | 515 kts | 82° |
| 2026-04-26 17:32 | 40.19450 | 44.22158 | 37007 ft | 515 kts | 82° |
| 2026-04-26 17:32 | 40.20730 | 44.31394 | 36990 ft | 515 kts | 82° |
| 2026-04-26 17:33 | 40.22000 | 44.40607 | 36994 ft | 515 kts | 82° |
| 2026-04-26 17:34 | 40.23896 | 44.54480 | 37003 ft | 516 kts | 82° |
| 2026-04-26 17:34 | 40.25166 | 44.63704 | 37009 ft | 516 kts | 81° |
| 2026-04-26 17:35 | 40.26495 | 44.72955 | 37030 ft | 517 kts | 81° |
| 2026-04-26 17:35 | 40.27819 | 44.82186 | 37045 ft | 518 kts | 82° |
| 2026-04-26 17:36 | 40.29135 | 44.91474 | 37046 ft | 518 kts | 82° |
| 2026-04-26 17:36 | 40.30438 | 45.00766 | 37038 ft | 519 kts | 82° |
| 2026-04-26 17:37 | 40.31731 | 45.10057 | 37043 ft | 519 kts | 82° |
| 2026-04-26 17:37 | 40.33020 | 45.19365 | 37042 ft | 518 kts | 82° |
| 2026-04-26 17:38 | 40.34940 | 45.33340 | 37042 ft | 518 kts | 82° |
| 2026-04-26 17:38 | 40.36208 | 45.42642 | 37039 ft | 519 kts | 82° |
| 2026-04-26 17:39 | 40.37468 | 45.51950 | 37038 ft | 521 kts | 82° |
| 2026-04-26 17:39 | 40.38727 | 45.61303 | 37033 ft | 521 kts | 82° |
| 2026-04-26 17:40 | 40.39788 | 45.69071 | 37045 ft | 522 kts | 82° |
| 2026-04-26 17:40 | 40.41401 | 45.80028 | 37045 ft | 522 kts | 81° |
| 2026-04-26 17:41 | 40.42786 | 45.89405 | 37046 ft | 523 kts | 81° |
| 2026-04-26 17:41 | 40.44139 | 45.98727 | 37047 ft | 523 kts | 82° |
| 2026-04-26 17:42 | 40.45483 | 46.08116 | 37054 ft | 522 kts | 82° |
| 2026-04-26 17:42 | 40.46820 | 46.17512 | 37058 ft | 523 kts | 82° |
| 2026-04-26 17:43 | 40.48152 | 46.26922 | 37058 ft | 524 kts | 82° |
| 2026-04-26 17:43 | 40.49481 | 46.36363 | 37062 ft | 524 kts | 82° |
| 2026-04-26 17:44 | 40.50796 | 46.45762 | 37064 ft | 524 kts | 82° |
| 2026-04-26 17:44 | 40.52099 | 46.55137 | 37064 ft | 524 kts | 82° |
| 2026-04-26 17:45 | 40.53403 | 46.64568 | 37065 ft | 524 kts | 82° |
| 2026-04-26 17:45 | 40.54697 | 46.74000 | 37064 ft | 524 kts | 82° |
| 2026-04-26 17:46 | 40.55984 | 46.83433 | 37059 ft | 523 kts | 82° |
| 2026-04-26 17:46 | 40.57262 | 46.92857 | 37067 ft | 523 kts | 82° |
| 2026-04-26 17:47 | 40.58104 | 46.99099 | 37069 ft | 523 kts | 82° |
| 2026-04-26 17:47 | 40.59826 | 47.11691 | 37071 ft | 523 kts | 79° |
| 2026-04-26 17:48 | 40.62447 | 47.20548 | 37077 ft | 527 kts | 59° |
| 2026-04-26 17:48 | 40.66779 | 47.28373 | 37072 ft | 528 kts | 51° |
| 2026-04-26 17:49 | 40.71496 | 47.35841 | 37074 ft | 529 kts | 50° |
| 2026-04-26 17:49 | 40.76243 | 47.43252 | 37068 ft | 530 kts | 49° |
| 2026-04-26 17:50 | 40.81049 | 47.50561 | 37076 ft | 530 kts | 49° |
| 2026-04-26 17:50 | 40.85884 | 47.57923 | 37074 ft | 530 kts | 49° |
| 2026-04-26 17:51 | 40.90676 | 47.65287 | 37079 ft | 531 kts | 49° |
| 2026-04-26 17:51 | 40.95471 | 47.72707 | 37072 ft | 531 kts | 49° |
| 2026-04-26 17:52 | 41.00277 | 47.80168 | 37072 ft | 531 kts | 49° |
| 2026-04-26 17:52 | 41.05077 | 47.87633 | 37037 ft | 533 kts | 49° |
| 2026-04-26 17:53 | 41.09700 | 47.95241 | 37021 ft | 532 kts | 53° |
| 2026-04-26 17:54 | 41.16138 | 48.07277 | 36993 ft | 533 kts | 54° |
| 2026-04-26 17:54 | 41.20475 | 48.15307 | 36991 ft | 533 kts | 54° |
| 2026-04-26 17:55 | 41.24840 | 48.23292 | 36974 ft | 534 kts | 53° |
| 2026-04-26 17:55 | 41.29206 | 48.31248 | 36969 ft | 531 kts | 53° |
| 2026-04-26 17:56 | 41.33559 | 48.39199 | 36973 ft | 531 kts | 53° |
| 2026-04-26 17:57 | 41.42221 | 48.55100 | 37084 ft | 530 kts | 53° |
| 2026-04-26 17:57 | 41.44394 | 48.59082 | 37327 ft | 529 kts | 53° |
| 2026-04-26 17:57 | 41.46577 | 48.63005 | 37527 ft | 528 kts | 53° |
| 2026-04-26 17:57 | 41.48788 | 48.66940 | 37670 ft | 528 kts | 52° |
| 2026-04-26 17:58 | 41.55321 | 48.78739 | 38096 ft | 529 kts | 55° |
| 2026-04-26 17:59 | 41.59415 | 48.86932 | 38378 ft | 529 kts | 57° |
| 2026-04-26 17:59 | 41.60750 | 48.89653 | 38440 ft | 529 kts | 57° |
| 2026-04-26 17:59 | 41.63462 | 48.95163 | 38601 ft | 530 kts | 57° |
| 2026-04-26 17:59 | 41.64812 | 48.97888 | 38688 ft | 530 kts | 56° |
| 2026-04-26 18:00 | 41.67520 | 49.03329 | 38810 ft | 530 kts | 56° |
| 2026-04-26 18:00 | 41.69567 | 49.07423 | 38916 ft | 529 kts | 56° |
| 2026-04-26 18:00 | 41.73673 | 49.15640 | 38991 ft | 532 kts | 56° |
| 2026-04-26 18:01 | 41.77092 | 49.22497 | 38980 ft | 536 kts | 56° |
| 2026-04-26 18:01 | 41.81247 | 49.30856 | 38985 ft | 536 kts | 56° |
| 2026-04-26 18:02 | 41.84799 | 49.37653 | 38991 ft | 535 kts | 53° |
| 2026-04-26 18:02 | 41.90013 | 49.47023 | 38996 ft | 536 kts | 52° |
| 2026-04-26 18:03 | 41.94472 | 49.55088 | 39004 ft | 537 kts | 53° |
| 2026-04-26 18:03 | 41.98850 | 49.63125 | 39015 ft | 537 kts | 53° |
| 2026-04-26 18:04 | 42.03258 | 49.71276 | 39018 ft | 537 kts | 53° |
| 2026-04-26 18:05 | 42.09838 | 49.83484 | 39017 ft | 537 kts | 53° |
| 2026-04-26 18:05 | 42.14213 | 49.91625 | 39028 ft | 536 kts | 53° |
| 2026-04-26 18:06 | 42.18582 | 49.99773 | 39031 ft | 536 kts | 53° |
| 2026-04-26 18:06 | 42.22947 | 50.07937 | 39035 ft | 536 kts | 53° |
| 2026-04-26 18:07 | 42.27295 | 50.16094 | 39043 ft | 535 kts | 53° |
| 2026-04-26 18:07 | 42.31620 | 50.24226 | 39052 ft | 535 kts | 53° |
| 2026-04-26 18:08 | 42.35955 | 50.32401 | 39058 ft | 535 kts | 53° |
| 2026-04-26 18:08 | 42.40300 | 50.40615 | 39058 ft | 535 kts | 53° |
| 2026-04-26 18:09 | 42.44634 | 50.48823 | 39071 ft | 535 kts | 52° |
| 2026-04-26 18:09 | 42.49148 | 50.56824 | 39069 ft | 535 kts | 50° |
| 2026-04-26 18:10 | 42.53744 | 50.64705 | 39069 ft | 535 kts | 50° |
| 2026-04-26 18:10 | 42.58327 | 50.72655 | 39072 ft | 535 kts | 50° |
| 2026-04-26 18:11 | 42.62889 | 50.80666 | 39086 ft | 535 kts | 50° |
| 2026-04-26 18:11 | 42.67427 | 50.88678 | 39080 ft | 535 kts | 50° |
| 2026-04-26 18:12 | 42.71954 | 50.96694 | 39083 ft | 535 kts | 50° |
| 2026-04-26 18:12 | 42.76488 | 51.04740 | 39087 ft | 535 kts | 50° |
| 2026-04-26 18:13 | 42.81006 | 51.12777 | 39083 ft | 535 kts | 50° |
| 2026-04-26 18:13 | 42.85528 | 51.20841 | 39086 ft | 535 kts | 50° |
| 2026-04-26 18:14 | 42.90038 | 51.28908 | 39094 ft | 534 kts | 51° |
| 2026-04-26 18:14 | 42.94538 | 51.36978 | 39094 ft | 534 kts | 51° |
| 2026-04-26 18:15 | 42.98999 | 51.45003 | 39090 ft | 534 kts | 51° |
| 2026-04-26 18:15 | 43.03479 | 51.53081 | 39096 ft | 534 kts | 51° |
| 2026-04-26 18:16 | 43.07960 | 51.61184 | 39094 ft | 534 kts | 51° |
| 2026-04-26 18:16 | 43.14668 | 51.73354 | 39099 ft | 533 kts | 51° |
| 2026-04-26 18:17 | 43.19130 | 51.81478 | 39108 ft | 533 kts | 51° |
| 2026-04-26 18:17 | 43.23586 | 51.89613 | 39108 ft | 533 kts | 51° |
| 2026-04-26 18:18 | 43.28033 | 51.97754 | 39107 ft | 533 kts | 51° |
| 2026-04-26 18:18 | 43.32439 | 52.05843 | 39111 ft | 532 kts | 51° |
| 2026-04-26 18:19 | 43.36875 | 52.14008 | 39116 ft | 532 kts | 51° |
| 2026-04-26 18:19 | 43.41302 | 52.22180 | 39106 ft | 532 kts | 51° |
| 2026-04-26 18:20 | 43.45726 | 52.30369 | 39114 ft | 532 kts | 51° |
| 2026-04-26 18:20 | 43.49393 | 52.37174 | 39114 ft | 532 kts | 51° |
| 2026-04-26 18:21 | 43.54543 | 52.46758 | 39139 ft | 532 kts | 51° |
| 2026-04-26 18:21 | 43.58951 | 52.54987 | 39129 ft | 532 kts | 51° |
| 2026-04-26 18:22 | 43.63308 | 52.63142 | 39134 ft | 531 kts | 51° |
| 2026-04-26 18:22 | 43.67698 | 52.71378 | 39149 ft | 531 kts | 51° |
| 2026-04-26 18:23 | 43.72072 | 52.79642 | 39141 ft | 532 kts | 51° |
| 2026-04-26 18:23 | 43.76433 | 52.87917 | 39142 ft | 532 kts | 51° |
| 2026-04-26 18:24 | 43.80791 | 52.96204 | 39147 ft | 532 kts | 51° |
| 2026-04-26 18:24 | 43.85126 | 53.04465 | 39151 ft | 532 kts | 51° |
| 2026-04-26 18:25 | 43.89476 | 53.12779 | 39148 ft | 533 kts | 51° |
| 2026-04-26 18:25 | 43.93842 | 53.21147 | 39145 ft | 533 kts | 52° |
| 2026-04-26 18:26 | 43.98184 | 53.29501 | 39154 ft | 533 kts | 52° |
| 2026-04-26 18:26 | 44.02507 | 53.37840 | 39154 ft | 534 kts | 52° |
| 2026-04-26 18:27 | 44.06840 | 53.46219 | 39159 ft | 534 kts | 52° |
| 2026-04-26 18:27 | 44.11172 | 53.54623 | 39164 ft | 534 kts | 52° |
| 2026-04-26 18:28 | 44.15467 | 53.62979 | 39160 ft | 534 kts | 52° |
| 2026-04-26 18:28 | 44.19782 | 53.71397 | 39165 ft | 533 kts | 52° |
| 2026-04-26 18:29 | 44.24096 | 53.79837 | 39165 ft | 534 kts | 52° |
| 2026-04-26 18:29 | 44.28403 | 53.88290 | 39171 ft | 534 kts | 52° |
| 2026-04-26 18:30 | 44.32699 | 53.96744 | 39171 ft | 534 kts | 52° |
| 2026-04-26 18:30 | 44.36993 | 54.05218 | 39178 ft | 534 kts | 52° |
| 2026-04-26 18:31 | 44.41241 | 54.13629 | 39170 ft | 534 kts | 52° |
| 2026-04-26 18:31 | 44.45530 | 54.22143 | 39174 ft | 534 kts | 52° |
| 2026-04-26 18:32 | 44.49798 | 54.30644 | 39180 ft | 534 kts | 52° |
| 2026-04-26 18:32 | 44.54073 | 54.39182 | 39175 ft | 535 kts | 52° |
| 2026-04-26 18:33 | 44.58345 | 54.47736 | 39175 ft | 536 kts | 52° |
| 2026-04-26 18:33 | 44.62617 | 54.56318 | 39178 ft | 536 kts | 52° |
| 2026-04-26 18:34 | 44.67178 | 54.64551 | 39186 ft | 531 kts | 40° |
| 2026-04-26 18:34 | 44.72496 | 54.71671 | 39185 ft | 530 kts | 39° |
| 2026-04-26 18:35 | 44.77955 | 54.78666 | 39190 ft | 530 kts | 38° |
| 2026-04-26 18:35 | 44.83422 | 54.85643 | 39189 ft | 530 kts | 38° |
| 2026-04-26 18:36 | 44.88861 | 54.92627 | 39187 ft | 530 kts | 38° |
| 2026-04-26 18:36 | 44.94301 | 54.99649 | 39189 ft | 530 kts | 38° |
| 2026-04-26 18:37 | 44.99733 | 55.06685 | 39207 ft | 530 kts | 39° |
| 2026-04-26 18:37 | 45.05117 | 55.13732 | 39188 ft | 532 kts | 41° |
| 2026-04-26 18:38 | 45.09507 | 55.22234 | 39193 ft | 539 kts | 63° |
| 2026-04-26 18:38 | 45.12478 | 55.32010 | 39203 ft | 541 kts | 67° |
| 2026-04-26 18:39 | 45.15176 | 55.41963 | 39201 ft | 541 kts | 68° |
| 2026-04-26 18:39 | 45.17847 | 55.51937 | 39198 ft | 541 kts | 68° |
| 2026-04-26 18:40 | 45.20546 | 55.61926 | 39202 ft | 541 kts | 68° |
| 2026-04-26 18:40 | 45.23248 | 55.71893 | 39204 ft | 541 kts | 68° |
| 2026-04-26 18:41 | 45.25932 | 55.81822 | 39212 ft | 541 kts | 68° |
| 2026-04-26 18:41 | 45.28622 | 55.91816 | 39192 ft | 541 kts | 68° |
| 2026-04-26 18:42 | 45.31299 | 56.01813 | 39205 ft | 541 kts | 68° |
| 2026-04-26 18:42 | 45.33521 | 56.10142 | 39214 ft | 541 kts | 68° |
| 2026-04-26 18:43 | 45.36618 | 56.21798 | 39214 ft | 541 kts | 68° |
| 2026-04-26 18:43 | 45.39265 | 56.31804 | 39213 ft | 541 kts | 68° |
| 2026-04-26 18:44 | 45.41901 | 56.41816 | 39214 ft | 540 kts | 68° |
| 2026-04-26 18:44 | 45.44087 | 56.50151 | 39218 ft | 539 kts | 68° |
| 2026-04-26 18:45 | 45.46704 | 56.60165 | 39216 ft | 540 kts | 68° |
| 2026-04-26 18:45 | 45.49317 | 56.70207 | 39215 ft | 540 kts | 68° |
| 2026-04-26 18:46 | 45.51899 | 56.80174 | 39220 ft | 540 kts | 68° |
| 2026-04-26 18:46 | 45.54512 | 56.90303 | 39220 ft | 540 kts | 68° |
| 2026-04-26 18:47 | 45.57077 | 57.00290 | 39220 ft | 540 kts | 68° |
| 2026-04-26 18:47 | 45.59650 | 57.10352 | 39220 ft | 539 kts | 69° |
| 2026-04-26 18:48 | 45.62218 | 57.20437 | 39224 ft | 539 kts | 69° |
| 2026-04-26 18:48 | 45.64774 | 57.30519 | 39224 ft | 539 kts | 69° |
| 2026-04-26 18:49 | 45.67323 | 57.40618 | 39232 ft | 539 kts | 69° |
| 2026-04-26 18:49 | 45.69861 | 57.50720 | 39228 ft | 539 kts | 69° |
| 2026-04-26 18:50 | 45.72369 | 57.60744 | 39225 ft | 538 kts | 69° |
| 2026-04-26 18:50 | 45.74887 | 57.70842 | 39228 ft | 538 kts | 69° |
| 2026-04-26 18:51 | 45.77396 | 57.80956 | 39218 ft | 538 kts | 69° |
| 2026-04-26 18:51 | 45.79884 | 57.91050 | 39239 ft | 538 kts | 69° |
| 2026-04-26 18:52 | 45.82370 | 58.01169 | 39225 ft | 537 kts | 69° |
| 2026-04-26 18:52 | 45.84844 | 58.11286 | 39234 ft | 537 kts | 69° |
| 2026-04-26 18:53 | 45.87294 | 58.21343 | 39238 ft | 537 kts | 69° |
| 2026-04-26 18:53 | 45.89742 | 58.31443 | 39237 ft | 537 kts | 70° |
| 2026-04-26 18:54 | 45.92197 | 58.41615 | 39237 ft | 537 kts | 70° |
| 2026-04-26 18:54 | 45.94635 | 58.51761 | 39237 ft | 536 kts | 70° |
| 2026-04-26 18:55 | 45.97059 | 58.61896 | 39236 ft | 536 kts | 70° |
| 2026-04-26 18:55 | 45.99471 | 58.72027 | 39236 ft | 536 kts | 70° |
| 2026-04-26 18:56 | 46.01880 | 58.82193 | 39241 ft | 536 kts | 70° |
| 2026-04-26 18:56 | 46.04256 | 58.92267 | 39239 ft | 535 kts | 70° |
| 2026-04-26 18:57 | 46.06255 | 59.00780 | 39239 ft | 535 kts | 70° |
| 2026-04-26 18:57 | 46.09017 | 59.12594 | 39243 ft | 535 kts | 70° |
| 2026-04-26 18:58 | 46.11385 | 59.22771 | 39245 ft | 535 kts | 70° |
| 2026-04-26 18:58 | 46.13742 | 59.32952 | 39243 ft | 535 kts | 70° |
| 2026-04-26 18:59 | 46.16094 | 59.43161 | 39256 ft | 535 kts | 70° |
| 2026-04-26 18:59 | 46.18434 | 59.53360 | 39245 ft | 535 kts | 70° |
| 2026-04-26 19:00 | 46.20750 | 59.63504 | 39246 ft | 536 kts | 71° |
| 2026-04-26 19:00 | 46.23076 | 59.73741 | 39259 ft | 536 kts | 71° |
| 2026-04-26 19:01 | 46.25380 | 59.83977 | 39244 ft | 536 kts | 71° |
| 2026-04-26 19:01 | 46.27670 | 59.94239 | 39248 ft | 536 kts | 71° |
| 2026-04-26 19:02 | 46.29949 | 60.04498 | 39251 ft | 536 kts | 71° |
| 2026-04-26 19:02 | 46.31850 | 60.13084 | 39250 ft | 537 kts | 71° |
| 2026-04-26 19:03 | 46.34487 | 60.25044 | 39248 ft | 536 kts | 71° |
| 2026-04-26 19:03 | 46.36752 | 60.35374 | 39250 ft | 537 kts | 71° |
| 2026-04-26 19:04 | 46.38998 | 60.45671 | 39250 ft | 537 kts | 71° |
| 2026-04-26 19:04 | 46.41226 | 60.55935 | 39248 ft | 537 kts | 71° |
| 2026-04-26 19:05 | 46.44566 | 60.71414 | 39250 ft | 537 kts | 71° |
| 2026-04-26 19:06 | 46.46782 | 60.81750 | 39249 ft | 537 kts | 72° |
| 2026-04-26 19:06 | 46.48988 | 60.92090 | 39248 ft | 537 kts | 72° |
| 2026-04-26 19:07 | 46.51193 | 61.02482 | 39252 ft | 537 kts | 72° |
| 2026-04-26 19:07 | 46.53376 | 61.12816 | 39252 ft | 537 kts | 72° |
| 2026-04-26 19:08 | 46.55556 | 61.23196 | 39249 ft | 537 kts | 72° |
| 2026-04-26 19:08 | 46.57730 | 61.33595 | 39250 ft | 537 kts | 72° |
| 2026-04-26 19:09 | 46.59898 | 61.44017 | 39254 ft | 537 kts | 72° |
| 2026-04-26 19:09 | 46.62049 | 61.54418 | 39254 ft | 537 kts | 72° |
| 2026-04-26 19:10 | 46.64193 | 61.64835 | 39253 ft | 538 kts | 72° |
| 2026-04-26 19:10 | 46.66326 | 61.75251 | 39251 ft | 537 kts | 72° |
| 2026-04-26 19:11 | 46.68453 | 61.85694 | 39252 ft | 537 kts | 72° |
| 2026-04-26 19:11 | 46.70572 | 61.96152 | 39252 ft | 538 kts | 72° |
| 2026-04-26 19:12 | 46.72664 | 62.06534 | 39252 ft | 538 kts | 72° |
| 2026-04-26 19:12 | 46.74780 | 62.17091 | 39255 ft | 538 kts | 73° |
| 2026-04-26 19:13 | 46.76856 | 62.27500 | 39252 ft | 538 kts | 73° |
| 2026-04-26 19:13 | 46.78940 | 62.38006 | 39255 ft | 538 kts | 73° |
| 2026-04-26 19:14 | 46.81008 | 62.48491 | 39254 ft | 538 kts | 73° |
| 2026-04-26 19:14 | 46.83070 | 62.58996 | 39252 ft | 538 kts | 73° |
| 2026-04-26 19:15 | 46.85113 | 62.69460 | 39258 ft | 538 kts | 73° |
| 2026-04-26 19:15 | 46.87154 | 62.79973 | 39259 ft | 538 kts | 73° |
| 2026-04-26 19:16 | 46.89193 | 62.90530 | 39257 ft | 538 kts | 73° |
| 2026-04-26 19:16 | 46.91213 | 63.01051 | 39254 ft | 538 kts | 73° |
| 2026-04-26 19:17 | 46.93225 | 63.11585 | 39255 ft | 537 kts | 73° |
| 2026-04-26 19:17 | 46.95232 | 63.22150 | 39254 ft | 537 kts | 73° |
| 2026-04-26 19:18 | 46.97211 | 63.32629 | 39255 ft | 537 kts | 73° |
| 2026-04-26 19:18 | 46.99196 | 63.43195 | 39254 ft | 537 kts | 74° |
| 2026-04-26 19:19 | 47.01170 | 63.53769 | 39256 ft | 537 kts | 74° |
| 2026-04-26 19:19 | 47.03123 | 63.64284 | 39258 ft | 537 kts | 74° |
| 2026-04-26 19:20 | 47.05079 | 63.74877 | 39261 ft | 537 kts | 74° |
| 2026-04-26 19:20 | 47.07019 | 63.85446 | 39259 ft | 537 kts | 74° |
| 2026-04-26 19:21 | 47.08954 | 63.96046 | 39260 ft | 537 kts | 74° |
| 2026-04-26 19:21 | 47.10878 | 64.06647 | 39259 ft | 537 kts | 74° |
| 2026-04-26 19:22 | 47.12795 | 64.17270 | 39263 ft | 537 kts | 75° |
| 2026-04-26 19:22 | 47.14699 | 64.27885 | 39262 ft | 537 kts | 75° |
| 2026-04-26 19:23 | 47.16593 | 64.38504 | 39260 ft | 537 kts | 75° |
| 2026-04-26 19:23 | 47.18464 | 64.49061 | 39259 ft | 537 kts | 75° |
| 2026-04-26 19:24 | 47.20341 | 64.59695 | 39265 ft | 537 kts | 75° |
| 2026-04-26 19:24 | 47.23142 | 64.75644 | 39260 ft | 537 kts | 75° |
| 2026-04-26 19:25 | 47.24386 | 64.82775 | 39260 ft | 537 kts | 75° |
| 2026-04-26 19:25 | 47.26843 | 64.96937 | 39265 ft | 536 kts | 75° |
| 2026-04-26 19:26 | 47.28671 | 65.07555 | 39268 ft | 536 kts | 75° |
| 2026-04-26 19:26 | 47.30496 | 65.18219 | 39268 ft | 536 kts | 75° |
| 2026-04-26 19:27 | 47.32307 | 65.28865 | 39271 ft | 536 kts | 76° |
| 2026-04-26 19:27 | 47.34112 | 65.39547 | 39270 ft | 536 kts | 76° |
| 2026-04-26 19:28 | 47.35602 | 65.48411 | 39271 ft | 536 kts | 76° |
| 2026-04-26 19:28 | 47.37388 | 65.59096 | 39274 ft | 536 kts | 76° |
| 2026-04-26 19:29 | 47.39455 | 65.71546 | 39280 ft | 536 kts | 76° |
| 2026-04-26 19:29 | 47.40933 | 65.80505 | 39282 ft | 536 kts | 76° |
| 2026-04-26 19:30 | 47.42711 | 65.91198 | 39279 ft | 536 kts | 76° |
| 2026-04-26 19:30 | 47.44232 | 66.00065 | 39284 ft | 536 kts | 75° |
| 2026-04-26 19:31 | 47.46359 | 66.12482 | 39281 ft | 536 kts | 76° |
| 2026-04-26 19:31 | 47.48169 | 66.23178 | 39281 ft | 536 kts | 76° |
| 2026-04-26 19:32 | 47.49962 | 66.33875 | 39289 ft | 536 kts | 76° |
| 2026-04-26 19:32 | 47.51744 | 66.44574 | 39285 ft | 535 kts | 76° |
| 2026-04-26 19:33 | 47.53513 | 66.55266 | 39291 ft | 535 kts | 76° |
| 2026-04-26 19:33 | 47.55275 | 66.65974 | 39283 ft | 535 kts | 76° |
| 2026-04-26 19:34 | 47.57024 | 66.76686 | 39288 ft | 535 kts | 77° |
| 2026-04-26 19:34 | 47.58695 | 66.87350 | 39284 ft | 535 kts | 77° |
| 2026-04-26 19:35 | 47.60352 | 66.98118 | 39285 ft | 535 kts | 77° |
| 2026-04-26 19:35 | 47.62008 | 67.08886 | 39285 ft | 535 kts | 77° |
| 2026-04-26 19:36 | 47.63381 | 67.17833 | 39285 ft | 535 kts | 77° |
| 2026-04-26 19:36 | 47.65302 | 67.30420 | 39284 ft | 535 kts | 77° |
| 2026-04-26 19:37 | 47.66937 | 67.41217 | 39283 ft | 535 kts | 77° |
| 2026-04-26 19:37 | 47.68549 | 67.51930 | 39282 ft | 535 kts | 78° |
| 2026-04-26 19:38 | 47.70160 | 67.62714 | 39280 ft | 535 kts | 78° |
| 2026-04-26 19:38 | 47.71765 | 67.73533 | 39282 ft | 535 kts | 78° |
| 2026-04-26 19:39 | 47.72945 | 67.84457 | 39045 ft | 539 kts | 93° |
| 2026-04-26 19:39 | 47.72227 | 67.89923 | 37393 ft | 550 kts | 117° |
| 2026-04-26 19:39 | 47.70118 | 67.94674 | 32712 ft | 542 kts | 134° |
| 2026-04-26 19:40 | 47.67688 | 67.98131 | 22580 ft | 419 kts | 154° |
| 2026-04-26 19:40 | 47.65487 | 67.99366 | 8545 ft | 260 kts | 178° |
| 2026-04-26 19:40 | 47.64395 | 67.98983 | 1303 ft | 136 kts | 218° |
| 2026-04-26 19:40 | 47.63673 | 67.98394 | 1016 ft | 95 kts | 184° |
| 2026-04-26 19:41 | 47.63257 | 67.98040 | 1013 ft | 68 kts | 212° |
| 2026-04-26 19:41 | 47.62999 | 67.97816 | 1013 ft | 23 kts | 124° |
| 2026-04-26 19:41 | 47.62942 | 67.97757 | 1014 ft | 21 kts | 124° |